createdAt,value
2022-12-27T00:00:01.759Z,6.09
2022-12-27T00:10:09.384Z,6.06
2022-12-27T00:20:15.766Z,6.08
2022-12-27T00:30:21.745Z,6.12
2022-12-27T00:40:27.628Z,6.14
2022-12-27T00:50:33.519Z,6.07
2022-12-27T01:00:39.843Z,5.86
2022-12-27T01:10:45.653Z,5.81
2022-12-27T01:20:51.953Z,5.76
2022-12-27T01:30:58.064Z,5.65
2022-12-27T01:41:24.086Z,5.49
2022-12-27T01:51:29.949Z,5.46
2022-12-27T02:01:40.993Z,5.43
2022-12-27T02:11:52.831Z,5.44
2022-12-27T02:22:55.451Z,5.47
2022-12-27T02:33:06.033Z,5.49
2022-12-27T02:43:30.560Z,5.49
2022-12-27T02:53:48.184Z,5.39
2022-12-27T03:04:09.991Z,4.94
2022-12-27T03:14:41.687Z,4.31
2022-12-27T03:25:06.087Z,3.79
2022-12-27T03:35:18.553Z,3.39
2022-12-27T03:45:44.791Z,3.09
2022-12-27T03:55:51.024Z,2.91
2022-12-27T04:05:56.857Z,2.68
2022-12-27T04:16:20.492Z,2.49
2022-12-27T04:26:44.379Z,2.35
2022-12-27T04:36:50.386Z,2.26
2022-12-27T04:47:13.954Z,2.15
2022-12-27T04:57:19.886Z,2.02
2022-12-27T05:07:43.516Z,1.87
2022-12-27T05:17:49.626Z,1.80
2022-12-27T05:27:55.642Z,1.66
2022-12-27T05:38:01.859Z,1.59
2022-12-27T05:48:08.587Z,1.47
2022-12-27T05:58:14.385Z,1.24
2022-12-27T06:08:20.431Z,1.16
2022-12-27T06:18:26.352Z,1.23
2022-12-27T06:28:32.403Z,1.47
2022-12-27T06:38:39.036Z,1.61
2022-12-27T06:48:45.336Z,1.70
2022-12-27T06:58:52.473Z,1.78
2022-12-27T07:08:57.353Z,1.88
2022-12-27T07:19:03.361Z,2.01
2022-12-27T07:29:09.337Z,2.11
2022-12-27T07:39:15.671Z,2.19
2022-12-27T07:49:21.622Z,2.22
2022-12-27T07:59:27.764Z,2.30
2022-12-27T08:09:37.871Z,2.39
2022-12-27T08:19:43.867Z,2.47
2022-12-27T08:29:49.643Z,2.59
2022-12-27T08:40:00.893Z,2.72
2022-12-27T08:50:10.421Z,2.75
2022-12-27T09:00:17.948Z,2.83
2022-12-27T09:10:25.381Z,2.95
2022-12-27T09:20:31.663Z,2.88
2022-12-27T09:30:37.595Z,2.81
2022-12-27T09:40:52.130Z,2.63
2022-12-27T09:51:01.469Z,2.78
2022-12-27T10:01:19.915Z,2.79
2022-12-27T10:11:37.732Z,2.71
2022-12-27T10:21:57.682Z,2.65
2022-12-27T10:32:04.103Z,2.72
2022-12-27T10:42:25.615Z,2.76
2022-12-27T10:52:35.684Z,2.91
2022-12-27T11:02:52.153Z,3.01
2022-12-27T11:13:03.720Z,3.26
2022-12-27T11:23:16.558Z,3.19
2022-12-27T11:33:25.472Z,3.06
2022-12-27T11:43:34.809Z,3.05
2022-12-27T11:54:11.529Z,2.98
2022-12-27T12:04:39.675Z,2.86
2022-12-27T12:15:03.089Z,2.75
2022-12-27T12:25:38.061Z,2.74
2022-12-27T12:36:09.217Z,2.75
2022-12-27T12:46:27.438Z,2.76
2022-12-27T12:56:48.510Z,2.85
2022-12-27T13:07:12.668Z,2.89
2022-12-27T13:17:26.368Z,2.89
2022-12-27T13:27:40.231Z,2.88
2022-12-27T13:38:04.780Z,2.82
2022-12-27T13:48:37.698Z,2.78
2022-12-27T13:59:06.988Z,2.81
2022-12-27T14:09:41.482Z,2.78
2022-12-27T14:20:08.039Z,2.79
2022-12-27T14:30:33.077Z,2.78
2022-12-27T14:40:56.622Z,2.74
2022-12-27T15:02:17.474Z,2.73
2022-12-27T15:12:35.854Z,2.76
2022-12-27T15:22:53.699Z,2.78
2022-12-27T15:33:06.508Z,2.74
2022-12-27T15:43:28.333Z,2.69
2022-12-27T15:53:49.539Z,2.63
2022-12-27T16:03:58.535Z,2.64
2022-12-27T16:14:29.559Z,2.65
2022-12-27T16:24:36.397Z,2.71
2022-12-27T16:34:44.096Z,2.67
2022-12-27T16:45:03.089Z,2.60
2022-12-27T16:55:27.713Z,2.53
2022-12-27T17:05:44.807Z,2.52
2022-12-27T17:16:07.665Z,2.49
2022-12-27T17:26:45.623Z,2.43
2022-12-27T17:37:02.029Z,2.36
2022-12-27T17:47:19.388Z,2.30
2022-12-27T17:57:43.035Z,2.28
2022-12-27T18:08:01.943Z,2.25
2022-12-27T18:18:10.315Z,2.23
2022-12-27T18:28:20.036Z,2.18
2022-12-27T18:38:31.098Z,2.11
2022-12-27T18:48:38.117Z,2.15
2022-12-27T18:59:01.951Z,2.19
2022-12-27T19:09:14.684Z,2.20
2022-12-27T19:19:25.379Z,2.20
2022-12-27T19:29:37.941Z,2.20
2022-12-27T19:39:48.716Z,2.24
2022-12-27T19:49:54.925Z,2.27
2022-12-27T20:00:04.101Z,2.27
2022-12-27T20:10:16.100Z,2.21
2022-12-27T20:20:22.582Z,2.16
2022-12-27T20:30:30.555Z,2.09
2022-12-27T20:40:36.578Z,2.06
2022-12-27T20:50:42.776Z,1.99
2022-12-27T21:00:48.753Z,1.68
2022-12-27T21:10:54.903Z,1.19
2022-12-27T21:21:05.867Z,0.74
2022-12-27T21:31:13.162Z,0.52
2022-12-27T21:41:21.536Z,0.62
2022-12-27T21:51:29.427Z,0.73
2022-12-27T22:01:52.051Z,0.91
2022-12-27T22:12:01.827Z,1.03
2022-12-27T22:22:08.154Z,1.04
2022-12-27T22:32:14.643Z,1.05
2022-12-27T22:42:20.676Z,0.98
2022-12-27T22:52:26.814Z,0.93
2022-12-27T23:02:33.015Z,1.00
2022-12-27T23:12:41.816Z,0.76
2022-12-27T23:22:48.303Z,0.30
2022-12-27T23:32:54.332Z,0.33
2022-12-27T23:43:18.754Z,0.38
2022-12-27T23:53:26.577Z,0.39
